Darstellungsparameter: Aktuell verwendete Einstellungen:
Skalierung der Graphiken ... ?
xyx+y,   Skalierungsfaktor:      Skalierung: Modus: x, Faktor: 1
Darstellungszeitraum ... ?
Vom - - bis: - -   Zeitraum: 04.03.2016 - 04.03.2016
Min/Max/Avg-Anzeige ... ?
Zeige MMA aktuell
Zeige MMA Monat
Zeige MMA alles
Zeige --A aktuell
Zeige --A Monat
Zeige --A alles
Keine MMA-Anzeige
MMA:
Keine MMA-Graphiken
MMA-Basis: 04.03.2016 - 04.03.2016
Quicknavigation für Darstellung... ?
Tage:      1T, 2T, 3T, 5T -1T -2T -3T -5T +1T +2T +3T +5T
Wochen: 1W, 2W, 3W -1W -2W -3W +1W +2W +3W
Monate: 1M, 3M, 6M -1M -3M -6M +1M +3M +6M
Jahre:    1J, 3J, 5J, 10J -1J -3J -5J -10J +1J +3J +5J +10J
Nutze für die Darstellung ... ?
Originaldaten oder Mittelwerte auf ...
Stundenbasis Tagesbasis Wochenbasis
Monatsbasis Jahresbasis      Datenbasis: Original-Daten
Darstellen als:
Statistik (Auto) Statistik J:M      Darstellung:
Zur Graphik,    zurück zur Übersicht aller Sensoren.
 
Tabellarische Datenbersicht: ?
 
Sensor: Nr:Datum:Temp:Feuchte:Taupunkt:
Aussen-T/F 1 04-03-2016 00:00:00 -0.2 C 95 % -0.9 C
2 04-03-2016 00:05:00 -0.3 C 95 % -1 C
3 04-03-2016 00:10:00 -0.2 C 95 % -0.9 C
4 04-03-2016 00:15:00 -0.3 C 95 % -1 C
5 04-03-2016 00:20:00 -0.3 C 95 % -1 C
6 04-03-2016 00:25:00 -0.4 C 95 % -1.1 C
7 04-03-2016 00:30:00 -0.3 C 95 % -1 C
8 04-03-2016 00:35:00 -0.3 C 95 % -1 C
9 04-03-2016 00:40:00 -0.3 C 96 % -0.86 C
10 04-03-2016 00:45:00 -0.4 C 96 % -0.96 C
11 04-03-2016 00:50:00 -0.4 C 95 % -1.1 C
12 04-03-2016 00:55:00 -0.5 C 95 % -1.2 C
13 04-03-2016 01:00:00 -0.6 C 95 % -1.3 C
14 04-03-2016 01:05:00 -0.6 C 95 % -1.3 C
15 04-03-2016 01:10:00 -0.6 C 95 % -1.3 C
16 04-03-2016 01:15:00 -0.6 C 96 % -1.16 C
17 04-03-2016 01:20:00 -0.6 C 96 % -1.16 C
18 04-03-2016 01:25:00 -0.6 C 96 % -1.16 C
19 04-03-2016 01:30:00 -0.5 C 96 % -1.06 C
20 04-03-2016 01:35:00 -0.6 C 96 % -1.16 C
21 04-03-2016 01:40:00 -0.5 C 96 % -1.06 C
22 04-03-2016 01:45:00 -0.4 C 96 % -0.96 C
23 04-03-2016 01:50:00 -0.4 C 96 % -0.96 C
24 04-03-2016 01:55:00 -0.4 C 96 % -0.96 C
25 04-03-2016 02:00:00 -0.3 C 96 % -0.86 C
Sensor: Nr:Datum:Temp:Feuchte:Taupunkt:
Aussen-T/F 26 04-03-2016 02:05:00 -0.2 C 96 % -0.76 C
27 04-03-2016 02:10:00 -0.2 C 96 % -0.76 C
28 04-03-2016 02:15:00 -0.3 C 96 % -0.86 C
29 04-03-2016 02:20:00 -0.4 C 96 % -0.96 C
30 04-03-2016 02:25:00 -0.6 C 96 % -1.16 C
31 04-03-2016 02:30:00 -0.7 C 96 % -1.26 C
32 04-03-2016 02:35:00 -0.8 C 95 % -1.5 C
33 04-03-2016 02:40:00 -0.8 C 95 % -1.5 C
34 04-03-2016 02:45:00 -0.9 C 96 % -1.46 C
35 04-03-2016 02:50:00 -1.1 C 96 % -1.66 C
36 04-03-2016 02:55:00 -1.1 C 95 % -1.8 C
37 04-03-2016 03:00:00 -1.2 C 95 % -1.9 C
38 04-03-2016 03:05:00 -1.2 C 96 % -1.75 C
39 04-03-2016 03:10:00 -1.2 C 96 % -1.75 C
40 04-03-2016 03:15:00 -1.3 C 96 % -1.85 C
41 04-03-2016 03:20:00 -1.3 C 96 % -1.85 C
42 04-03-2016 03:25:00 -1.3 C 96 % -1.85 C
43 04-03-2016 03:30:00 -1.3 C 96 % -1.85 C
44 04-03-2016 03:35:00 -1.4 C 95 % -2.1 C
45 04-03-2016 03:40:00 -1.4 C 96 % -1.95 C
46 04-03-2016 03:45:00 -1.4 C 96 % -1.95 C
47 04-03-2016 03:50:00 -1.4 C 96 % -1.95 C
48 04-03-2016 03:55:00 -1.5 C 96 % -2.05 C
49 04-03-2016 04:00:00 -1.5 C 96 % -2.05 C
50 04-03-2016 04:05:00 -1.6 C 96 % -2.15 C
Sensor: Nr:Datum:Temp:Feuchte:Taupunkt:
Aussen-T/F 51 04-03-2016 04:10:00 -1.5 C 96 % -2.05 C
52 04-03-2016 04:15:00 -1.4 C 96 % -1.95 C
53 04-03-2016 04:20:00 -1.4 C 96 % -1.95 C
54 04-03-2016 04:25:00 -1.4 C 96 % -1.95 C
55 04-03-2016 04:30:00 -1.4 C 96 % -1.95 C
56 04-03-2016 04:35:00 -1.5 C 96 % -2.05 C
57 04-03-2016 04:40:00 -1.5 C 96 % -2.05 C
58 04-03-2016 04:45:00 -1.6 C 96 % -2.15 C
59 04-03-2016 04:50:00 -1.5 C 96 % -2.05 C
60 04-03-2016 04:55:00 -1.4 C 96 % -1.95 C
61 04-03-2016 05:00:00 -1.4 C 96 % -1.95 C
62 04-03-2016 05:05:00 -1.3 C 96 % -1.85 C
63 04-03-2016 05:10:00 -1.1 C 96 % -1.66 C
64 04-03-2016 05:15:00 -0.9 C 96 % -1.46 C
65 04-03-2016 05:20:00 -0.8 C 96 % -1.36 C
66 04-03-2016 05:25:00 -0.8 C 96 % -1.36 C
67 04-03-2016 05:30:00 -0.8 C 96 % -1.36 C
68 04-03-2016 05:35:00 -0.8 C 96 % -1.36 C
69 04-03-2016 05:40:00 -0.8 C 96 % -1.36 C
70 04-03-2016 05:45:00 -0.8 C 96 % -1.36 C
71 04-03-2016 05:50:00 -0.8 C 96 % -1.36 C
72 04-03-2016 05:55:00 -0.8 C 96 % -1.36 C
73 04-03-2016 06:00:00 -0.8 C 96 % -1.36 C
74 04-03-2016 06:05:00 -0.9 C 96 % -1.46 C
75 04-03-2016 06:10:00 -0.9 C 96 % -1.46 C
Sensor: Nr:Datum:Temp:Feuchte:Taupunkt:
Aussen-T/F 76 04-03-2016 06:15:00 -0.9 C 96 % -1.46 C
77 04-03-2016 06:20:00 -0.8 C 96 % -1.36 C
78 04-03-2016 06:25:00 -0.8 C 96 % -1.36 C
79 04-03-2016 06:30:00 -0.8 C 96 % -1.36 C
80 04-03-2016 06:35:00 -0.8 C 96 % -1.36 C
81 04-03-2016 06:40:00 -0.8 C 96 % -1.36 C
82 04-03-2016 06:45:00 -0.8 C 96 % -1.36 C
83 04-03-2016 06:50:00 -0.8 C 96 % -1.36 C
84 04-03-2016 06:55:00 -0.7 C 96 % -1.26 C
85 04-03-2016 07:00:00 -0.8 C 96 % -1.36 C
86 04-03-2016 07:05:00 -0.7 C 96 % -1.26 C
87 04-03-2016 07:10:00 -0.7 C 96 % -1.26 C
88 04-03-2016 07:15:00 -0.7 C 96 % -1.26 C
89 04-03-2016 07:20:00 -0.6 C 96 % -1.16 C
90 04-03-2016 07:25:00 -0.6 C 96 % -1.16 C
91 04-03-2016 07:30:00 -0.4 C 96 % -0.96 C
92 04-03-2016 07:35:00 -0.2 C 96 % -0.76 C
93 04-03-2016 07:40:00 -0.1 C 96 % -0.66 C
94 04-03-2016 07:45:00 0.2 C 97 % -0.22 C
95 04-03-2016 07:50:00 0.3 C 97 % -0.12 C
96 04-03-2016 07:55:00 0.4 C 97 % -0.02 C
97 04-03-2016 08:00:00 0.5 C 96 % -0.06 C
98 04-03-2016 08:05:00 0.6 C 97 % 0.18 C
99 04-03-2016 08:10:00 0.6 C 96 % 0.04 C
100 04-03-2016 08:15:00 0.7 C 96 % 0.14 C
Sensor: Nr:Datum:Temp:Feuchte:Taupunkt:
Aussen-T/F 101 04-03-2016 08:20:00 0.7 C 96 % 0.14 C
102 04-03-2016 08:25:00 0.8 C 96 % 0.24 C
103 04-03-2016 08:30:00 0.8 C 96 % 0.24 C
104 04-03-2016 08:35:00 0.9 C 96 % 0.34 C
105 04-03-2016 08:40:00 0.9 C 96 % 0.34 C
106 04-03-2016 08:45:00 1 C 96 % 0.44 C
107 04-03-2016 08:50:00 1.1 C 95 % 0.39 C
108 04-03-2016 08:55:00 1.2 C 95 % 0.49 C
109 04-03-2016 09:00:00 1.3 C 95 % 0.59 C
110 04-03-2016 09:05:00 1.3 C 95 % 0.59 C
111 04-03-2016 09:10:00 1.4 C 94 % 0.54 C
112 04-03-2016 09:15:00 1.5 C 94 % 0.64 C
113 04-03-2016 09:20:00 1.6 C 94 % 0.74 C
114 04-03-2016 09:25:00 1.7 C 93 % 0.69 C
115 04-03-2016 09:30:00 1.7 C 92 % 0.54 C
116 04-03-2016 09:35:00 1.8 C 92 % 0.64 C
117 04-03-2016 09:40:00 1.9 C 91 % 0.59 C
118 04-03-2016 09:45:00 2 C 91 % 0.69 C
119 04-03-2016 09:50:00 2.1 C 91 % 0.79 C
120 04-03-2016 09:55:00 2.1 C 90 % 0.64 C
121 04-03-2016 10:00:00 2.2 C 90 % 0.73 C
122 04-03-2016 10:05:00 2.3 C 90 % 0.83 C
123 04-03-2016 10:10:00 2.3 C 90 % 0.83 C
124 04-03-2016 10:15:00 2.3 C 89 % 0.68 C
125 04-03-2016 10:20:00 2.3 C 89 % 0.68 C
Sensor: Nr:Datum:Temp:Feuchte:Taupunkt:
Aussen-T/F 126 04-03-2016 10:25:00 2.4 C 89 % 0.78 C
127 04-03-2016 10:30:00 2.5 C 89 % 0.88 C
128 04-03-2016 10:35:00 2.6 C 89 % 0.97 C
129 04-03-2016 10:40:00 2.6 C 88 % 0.82 C
130 04-03-2016 10:45:00 2.7 C 88 % 0.92 C
131 04-03-2016 10:50:00 2.7 C 88 % 0.92 C
132 04-03-2016 10:55:00 2.8 C 88 % 1.02 C
133 04-03-2016 11:00:00 2.8 C 88 % 1.02 C
134 04-03-2016 11:05:00 2.8 C 87 % 0.86 C
135 04-03-2016 11:10:00 2.9 C 87 % 0.96 C
136 04-03-2016 11:15:00 3 C 87 % 1.05 C
137 04-03-2016 11:20:00 3.1 C 88 % 1.31 C
138 04-03-2016 11:25:00 3.2 C 88 % 1.41 C
139 04-03-2016 11:30:00 3.3 C 87 % 1.35 C
140 04-03-2016 11:35:00 3.4 C 87 % 1.45 C
141 04-03-2016 11:40:00 3.6 C 87 % 1.64 C
142 04-03-2016 11:45:00 3.6 C 85 % 1.32 C
143 04-03-2016 11:50:00 3.7 C 85 % 1.42 C
144 04-03-2016 11:55:00 3.7 C 84 % 1.25 C
145 04-03-2016 12:00:00 3.7 C 84 % 1.25 C
146 04-03-2016 12:05:00 3.8 C 84 % 1.35 C
147 04-03-2016 12:10:00 3.8 C 84 % 1.35 C
148 04-03-2016 12:15:00 3.8 C 84 % 1.35 C
149 04-03-2016 12:20:00 3.8 C 85 % 1.52 C
150 04-03-2016 12:25:00 3.8 C 85 % 1.52 C
Sensor: Nr:Datum:Temp:Feuchte:Taupunkt:
Aussen-T/F 151 04-03-2016 12:30:00 3.9 C 86 % 1.78 C
152 04-03-2016 12:35:00 3.9 C 85 % 1.61 C
153 04-03-2016 12:40:00 4 C 85 % 1.71 C
154 04-03-2016 12:45:00 4.1 C 85 % 1.81 C
155 04-03-2016 12:50:00 4.1 C 84 % 1.65 C
156 04-03-2016 12:55:00 4.1 C 85 % 1.81 C
157 04-03-2016 13:00:00 4.2 C 85 % 1.91 C
158 04-03-2016 13:05:00 4.2 C 84 % 1.74 C
159 04-03-2016 13:10:00 4.2 C 84 % 1.74 C
160 04-03-2016 13:15:00 4.2 C 83 % 1.58 C
161 04-03-2016 13:20:00 4.2 C 84 % 1.74 C
162 04-03-2016 13:25:00 4.2 C 84 % 1.74 C
163 04-03-2016 13:30:00 4.2 C 83 % 1.58 C
164 04-03-2016 13:35:00 4.2 C 84 % 1.74 C
165 04-03-2016 13:40:00 4.2 C 84 % 1.74 C
166 04-03-2016 13:45:00 4.2 C 84 % 1.74 C
167 04-03-2016 13:50:00 4.2 C 84 % 1.74 C
168 04-03-2016 13:55:00 4.2 C 84 % 1.74 C
169 04-03-2016 14:00:00 4.2 C 85 % 1.91 C
170 04-03-2016 14:05:00 4.1 C 86 % 1.97 C
171 04-03-2016 14:10:00 3.9 C 87 % 1.94 C
172 04-03-2016 14:15:00 3.8 C 88 % 2 C
173 04-03-2016 14:20:00 3.7 C 89 % 2.06 C
174 04-03-2016 14:25:00 3.7 C 90 % 2.22 C
175 04-03-2016 14:30:00 3.6 C 90 % 2.12 C
Sensor: Nr:Datum:Temp:Feuchte:Taupunkt:
Aussen-T/F 176 04-03-2016 14:35:00 3.6 C 90 % 2.12 C
177 04-03-2016 14:40:00 3.5 C 91 % 2.17 C
178 04-03-2016 14:45:00 3.5 C 91 % 2.17 C
179 04-03-2016 14:50:00 3.5 C 92 % 2.33 C
180 04-03-2016 14:55:00 3.4 C 92 % 2.23 C
181 04-03-2016 15:00:00 3.4 C 92 % 2.23 C
182 04-03-2016 15:05:00 3.3 C 92 % 2.13 C
183 04-03-2016 15:10:00 3.3 C 92 % 2.13 C
184 04-03-2016 15:15:00 3.2 C 93 % 2.18 C
185 04-03-2016 15:20:00 3.2 C 93 % 2.18 C
186 04-03-2016 15:25:00 3.1 C 93 % 2.08 C
187 04-03-2016 15:30:00 3.1 C 93 % 2.08 C
188 04-03-2016 15:35:00 2.9 C 93 % 1.88 C
189 04-03-2016 15:40:00 2.8 C 93 % 1.78 C
190 04-03-2016 15:45:00 2.8 C 93 % 1.78 C
191 04-03-2016 15:50:00 2.8 C 93 % 1.78 C
192 04-03-2016 15:55:00 2.7 C 93 % 1.68 C
193 04-03-2016 16:00:00 2.7 C 94 % 1.83 C
194 04-03-2016 16:05:00 2.7 C 94 % 1.83 C
195 04-03-2016 16:10:00 2.8 C 94 % 1.93 C
196 04-03-2016 16:15:00 2.8 C 94 % 1.93 C
197 04-03-2016 16:20:00 2.8 C 94 % 1.93 C
198 04-03-2016 16:25:00 2.9 C 94 % 2.03 C
199 04-03-2016 16:30:00 2.9 C 94 % 2.03 C
200 04-03-2016 16:35:00 2.9 C 94 % 2.03 C
Sensor: Nr:Datum:Temp:Feuchte:Taupunkt:
Aussen-T/F 201 04-03-2016 16:40:00 3 C 94 % 2.13 C
202 04-03-2016 16:45:00 3 C 94 % 2.13 C
203 04-03-2016 16:50:00 3.1 C 94 % 2.23 C
204 04-03-2016 16:55:00 3.1 C 94 % 2.23 C
205 04-03-2016 17:00:00 3.1 C 94 % 2.23 C
206 04-03-2016 17:05:00 3.2 C 94 % 2.33 C
207 04-03-2016 17:10:00 3.2 C 94 % 2.33 C
208 04-03-2016 17:15:00 3.2 C 94 % 2.33 C
209 04-03-2016 17:20:00 3.2 C 94 % 2.33 C
210 04-03-2016 17:25:00 3.3 C 94 % 2.43 C
211 04-03-2016 17:30:00 3.3 C 94 % 2.43 C
212 04-03-2016 17:35:00 3.3 C 94 % 2.43 C
213 04-03-2016 17:40:00 3.3 C 94 % 2.43 C
214 04-03-2016 17:45:00 3.3 C 94 % 2.43 C
215 04-03-2016 17:50:00 3.3 C 94 % 2.43 C
216 04-03-2016 17:55:00 3.3 C 94 % 2.43 C
217 04-03-2016 18:00:00 3.3 C 94 % 2.43 C
218 04-03-2016 18:05:00 3.2 C 94 % 2.33 C
219 04-03-2016 18:10:00 3.2 C 94 % 2.33 C
220 04-03-2016 18:15:00 3.2 C 94 % 2.33 C
221 04-03-2016 18:20:00 3.2 C 95 % 2.48 C
222 04-03-2016 18:25:00 3.2 C 95 % 2.48 C
223 04-03-2016 18:30:00 3.2 C 95 % 2.48 C
224 04-03-2016 18:35:00 3.2 C 95 % 2.48 C
225 04-03-2016 18:40:00 3.2 C 95 % 2.48 C
Sensor: Nr:Datum:Temp:Feuchte:Taupunkt:
Aussen-T/F 226 04-03-2016 18:45:00 3.2 C 95 % 2.48 C
227 04-03-2016 18:50:00 3.2 C 95 % 2.48 C
228 04-03-2016 18:55:00 3.1 C 95 % 2.38 C
229 04-03-2016 19:00:00 3.1 C 95 % 2.38 C
230 04-03-2016 19:05:00 3.2 C 95 % 2.48 C
231 04-03-2016 19:10:00 3.2 C 95 % 2.48 C
232 04-03-2016 19:15:00 3.2 C 95 % 2.48 C
233 04-03-2016 19:20:00 3.2 C 95 % 2.48 C
234 04-03-2016 19:25:00 3.2 C 95 % 2.48 C
235 04-03-2016 19:30:00 3.2 C 95 % 2.48 C
236 04-03-2016 19:35:00 3.2 C 95 % 2.48 C
237 04-03-2016 19:40:00 3.2 C 95 % 2.48 C
238 04-03-2016 19:45:00 3.2 C 95 % 2.48 C
239 04-03-2016 19:50:00 3.2 C 95 % 2.48 C
240 04-03-2016 19:55:00 3.2 C 96 % 2.63 C
241 04-03-2016 20:00:00 3.2 C 96 % 2.63 C
242 04-03-2016 20:05:00 3.1 C 96 % 2.53 C
243 04-03-2016 20:10:00 3.1 C 95 % 2.38 C
244 04-03-2016 20:15:00 3.2 C 95 % 2.48 C
245 04-03-2016 20:20:00 3.2 C 96 % 2.63 C
246 04-03-2016 20:25:00 3.2 C 96 % 2.63 C
247 04-03-2016 20:30:00 3.2 C 96 % 2.63 C
248 04-03-2016 20:35:00 3.2 C 96 % 2.63 C
249 04-03-2016 20:40:00 3.2 C 96 % 2.63 C
250 04-03-2016 20:45:00 3.2 C 96 % 2.63 C
Sensor: Nr:Datum:Temp:Feuchte:Taupunkt:
Aussen-T/F 251 04-03-2016 20:50:00 3.2 C 96 % 2.63 C
252 04-03-2016 20:55:00 3.2 C 96 % 2.63 C
253 04-03-2016 21:00:00 3.2 C 96 % 2.63 C
254 04-03-2016 21:05:00 3.2 C 96 % 2.63 C
255 04-03-2016 21:10:00 3.2 C 96 % 2.63 C
256 04-03-2016 21:15:00 3.2 C 96 % 2.63 C
257 04-03-2016 21:20:00 3.2 C 96 % 2.63 C
258 04-03-2016 21:25:00 3.2 C 96 % 2.63 C
259 04-03-2016 21:30:00 3.2 C 96 % 2.63 C
260 04-03-2016 21:35:00 3.2 C 96 % 2.63 C
261 04-03-2016 21:40:00 3.2 C 96 % 2.63 C
262 04-03-2016 21:45:00 3.3 C 96 % 2.72 C
263 04-03-2016 21:50:00 3.3 C 96 % 2.72 C
264 04-03-2016 21:55:00 3.3 C 96 % 2.72 C
265 04-03-2016 22:00:00 3.3 C 96 % 2.72 C
266 04-03-2016 22:05:00 3.3 C 96 % 2.72 C
267 04-03-2016 22:10:00 3.3 C 96 % 2.72 C
268 04-03-2016 22:15:00 3.3 C 96 % 2.72 C
269 04-03-2016 22:20:00 3.3 C 96 % 2.72 C
270 04-03-2016 22:25:00 3.3 C 96 % 2.72 C
271 04-03-2016 22:30:00 3.3 C 96 % 2.72 C
272 04-03-2016 22:35:00 3.3 C 96 % 2.72 C
273 04-03-2016 22:40:00 3.3 C 96 % 2.72 C
274 04-03-2016 22:45:00 3.3 C 96 % 2.72 C
275 04-03-2016 22:50:00 3.3 C 96 % 2.72 C
Sensor: Nr:Datum:Temp:Feuchte:Taupunkt:
Aussen-T/F 276 04-03-2016 22:55:00 3.3 C 96 % 2.72 C
277 04-03-2016 23:00:00 3.3 C 96 % 2.72 C
278 04-03-2016 23:05:00 3.3 C 96 % 2.72 C
279 04-03-2016 23:10:00 3.3 C 96 % 2.72 C
280 04-03-2016 23:15:00 3.4 C 96 % 2.82 C
281 04-03-2016 23:20:00 3.4 C 96 % 2.82 C
282 04-03-2016 23:25:00 3.4 C 96 % 2.82 C
283 04-03-2016 23:30:00 3.3 C 96 % 2.72 C
284 04-03-2016 23:35:00 3.3 C 96 % 2.72 C
285 04-03-2016 23:40:00 3.4 C 96 % 2.82 C
286 04-03-2016 23:45:00 3.4 C 97 % 2.97 C
287 04-03-2016 23:50:00 3.4 C 97 % 2.97 C
288 04-03-2016 23:55:00 3.4 C 97 % 2.97 C

Legende:
   Min
   Max


Maximal/Minimal-Werte vom 04.03.2016 - 04.03.2016

Sensor Min Max Avg
Temp
(Aussen-T/F)
-1.6 °C
04-03-2016  04:05:00
4.2 °C
04-03-2016  13:00:00
1.77 °C
Feuchte
(Aussen-T/F)
83 %
04-03-2016  13:15:00
97 %
04-03-2016  07:45:00
93.47 %
Taupunkt
(Aussen-T/F)
-2.15 C
04-03-2016  04:05:00
2.97 C
04-03-2016  23:45:00
0.81 C

Die Daten stammen von einer Davis Vantage Pro 2 Wetter-Station und werden unter Linux mit der Software wview2wettercgi und aufbereitet. Alle Angaben erfolgen ohne Gewähr für ihre Vollständigkeit oder Richtigkeit.
Kontakt: Rainer Krienke krienke@uni-koblenz.de . Meine Webseiten an der Uni Koblenz oder privat.
Version: $Revision: 0.78 $